createdAt,value
2018-03-15T00:01:15.337Z,97627.50
2018-03-15T00:02:53.043Z,97624.49
2018-03-15T00:04:31.007Z,97617.47
2018-03-15T00:06:08.587Z,97618.39
2018-03-15T00:07:45.871Z,97607.05
2018-03-15T00:09:23.963Z,97619.25
2018-03-15T00:11:01.375Z,97612.33
2018-03-15T00:12:38.650Z,97610.62
2018-03-15T00:14:16.031Z,97608.34
2018-03-15T00:15:53.776Z,97611.11
2018-03-15T00:17:31.032Z,97593.55
2018-03-15T00:19:09.372Z,97598.40
2018-03-15T00:20:46.969Z,97591.84
2018-03-15T00:22:24.815Z,97589.28
2018-03-15T00:24:02.102Z,97572.77
2018-03-15T00:25:40.554Z,97556.23
2018-03-15T00:27:18.520Z,97562.34
2018-03-15T00:28:56.099Z,97567.06
2018-03-15T00:30:33.727Z,97555.25
2018-03-15T00:32:11.423Z,97584.93
2018-03-15T00:33:50.164Z,97566.20
2018-03-15T00:35:28.242Z,97544.02
2018-03-15T00:37:05.941Z,97556.20
2018-03-15T00:38:43.592Z,97539.20
2018-03-15T00:40:21.896Z,97522.30
2018-03-15T00:42:01.593Z,97519.23
2018-03-15T00:43:39.411Z,97509.69
2018-03-15T00:45:19.068Z,97507.97
2018-03-15T00:46:57.080Z,97504.97
2018-03-15T00:48:36.028Z,97490.58
2018-03-15T00:50:14.033Z,97478.86
2018-03-15T00:51:51.900Z,97479.66
2018-03-15T00:53:29.474Z,97471.84
2018-03-15T00:55:08.306Z,97478.00
2018-03-15T00:56:45.942Z,97459.75
2018-03-15T00:58:24.376Z,97446.23
2018-03-15T01:00:03.436Z,97457.14
2018-03-15T01:01:45.873Z,97450.13
2018-03-15T01:03:24.352Z,97441.97
2018-03-15T01:05:02.066Z,97437.16
2018-03-15T01:06:39.745Z,97437.98
2018-03-15T01:08:18.511Z,97455.80
2018-03-15T01:09:56.136Z,97462.77
2018-03-15T01:11:33.655Z,97450.61
2018-03-15T01:13:11.024Z,97435.84
2018-03-15T01:14:49.842Z,97426.27
2018-03-15T01:16:27.600Z,97430.65
2018-03-15T01:18:05.052Z,97422.34
2018-03-15T01:19:42.803Z,97419.31
2018-03-15T01:21:21.326Z,97416.30
2018-03-15T01:22:59.828Z,97405.48
2018-03-15T01:24:37.192Z,97399.38
2018-03-15T01:26:16.100Z,97391.10
2018-03-15T01:27:56.416Z,97399.31
2018-03-15T01:29:34.247Z,97388.92
2018-03-15T01:31:12.245Z,97383.28
2018-03-15T01:32:50.087Z,97373.33
2018-03-15T01:34:27.858Z,97378.50
2018-03-15T01:36:06.967Z,97373.33
2018-03-15T01:37:44.725Z,97348.98
2018-03-15T01:39:22.507Z,97344.64
2018-03-15T01:41:01.709Z,97354.23
2018-03-15T01:42:39.787Z,97338.08
2018-03-15T01:44:21.479Z,97342.43
2018-03-15T01:46:00.181Z,97340.74
2018-03-15T01:47:38.303Z,97343.78
2018-03-15T01:49:15.624Z,97348.10
2018-03-15T01:50:53.686Z,97340.77
2018-03-15T01:52:33.238Z,97340.72
2018-03-15T01:54:12.041Z,97377.28
2018-03-15T01:55:49.741Z,97365.08
2018-03-15T01:57:28.295Z,97342.89
2018-03-15T01:59:05.745Z,97338.59
2018-03-15T02:00:43.399Z,97332.53
2018-03-15T02:02:20.807Z,97351.59
2018-03-15T02:03:59.389Z,97352.48
2018-03-15T02:05:36.604Z,97347.27
2018-03-15T02:07:14.043Z,97331.16
2018-03-15T02:08:52.632Z,97320.77
2018-03-15T02:10:30.449Z,97305.20
2018-03-15T02:12:08.614Z,97296.06
2018-03-15T02:13:45.794Z,97282.13
2018-03-15T02:15:24.696Z,97289.14
2018-03-15T02:17:02.455Z,97294.69
2018-03-15T02:18:40.161Z,97298.70
2018-03-15T02:20:18.320Z,97303.45
2018-03-15T02:21:56.607Z,97290.37
2018-03-15T02:23:37.762Z,97283.45
2018-03-15T02:25:15.421Z,97287.39
2018-03-15T02:26:52.256Z,97273.92
2018-03-15T02:28:29.530Z,97276.09
2018-03-15T02:30:07.643Z,97271.74
2018-03-15T02:31:45.987Z,97261.33
2018-03-15T02:33:30.895Z,97273.48
2018-03-15T02:35:08.631Z,97273.45
2018-03-15T02:36:46.301Z,97286.54
2018-03-15T02:38:24.805Z,97263.53
2018-03-15T02:40:01.603Z,97246.11
2018-03-15T02:43:17.420Z,97253.95
2018-03-15T02:44:55.521Z,97250.08
2018-03-15T02:46:33.414Z,97240.96
2018-03-15T02:48:11.478Z,97251.80
2018-03-15T02:49:48.753Z,97258.72
2018-03-15T02:51:26.453Z,97254.38
2018-03-15T02:53:08.753Z,97234.84
2018-03-15T02:54:45.615Z,97240.10
2018-03-15T02:56:22.863Z,97233.15
2018-03-15T02:58:01.121Z,97221.42
2018-03-15T02:59:38.096Z,97215.72
2018-03-15T03:01:15.039Z,97213.58
2018-03-15T03:02:52.461Z,97221.91
2018-03-15T03:04:29.373Z,97212.75
2018-03-15T03:06:12.666Z,97226.66
2018-03-15T03:07:51.015Z,97217.87
2018-03-15T03:09:28.182Z,97215.84
2018-03-15T03:11:06.367Z,97220.99
2018-03-15T03:12:43.121Z,97220.53
2018-03-15T03:14:20.041Z,97211.87
2018-03-15T03:15:57.239Z,97194.53
2018-03-15T03:17:35.498Z,97207.55
2018-03-15T03:19:12.418Z,97208.38
2018-03-15T03:20:49.154Z,97210.19
2018-03-15T03:22:25.937Z,97205.83
2018-03-15T03:24:02.931Z,97214.04
2018-03-15T03:25:40.378Z,97218.36
2018-03-15T03:27:17.840Z,97227.05
2018-03-15T03:28:55.310Z,97240.56
2018-03-15T03:30:32.555Z,97234.01
2018-03-15T03:32:09.333Z,97226.20
2018-03-15T03:33:45.846Z,97223.14
2018-03-15T03:35:23.133Z,97220.63
2018-03-15T03:37:00.134Z,97215.84
2018-03-15T03:38:36.683Z,97213.22
2018-03-15T03:40:14.235Z,97204.91
2018-03-15T03:41:50.818Z,97214.13
2018-03-15T03:43:28.557Z,97216.73
2018-03-15T03:45:05.210Z,97202.73
2018-03-15T03:46:42.169Z,97214.96
2018-03-15T03:48:18.763Z,97211.41
2018-03-15T03:49:56.444Z,97204.48
2018-03-15T03:51:33.006Z,97202.34
2018-03-15T03:53:09.466Z,97204.45
2018-03-15T03:54:46.174Z,97211.87
2018-03-15T03:56:24.144Z,97217.99
2018-03-15T03:58:00.758Z,97220.10
2018-03-15T03:59:37.682Z,97229.66
2018-03-15T04:01:14.530Z,97227.52
2018-03-15T04:02:51.374Z,97230.55
2018-03-15T04:04:28.185Z,97224.05
2018-03-15T04:06:04.891Z,97211.01
2018-03-15T04:07:41.470Z,97211.87
2018-03-15T04:09:18.109Z,97211.47
2018-03-15T04:10:56.189Z,97215.84
2018-03-15T04:12:33.578Z,97204.91
2018-03-15T04:14:10.121Z,97214.53
2018-03-15T04:15:47.354Z,97210.58
2018-03-15T04:17:24.405Z,97212.73
2018-03-15T04:19:02.071Z,97214.53
2018-03-15T04:21:05.350Z,97214.96
2018-03-15T04:22:41.946Z,97220.16
2018-03-15T04:24:19.624Z,97214.10
2018-03-15T04:25:56.359Z,97210.19
2018-03-15T04:27:33.328Z,97207.09
2018-03-15T04:29:10.082Z,97220.16
2018-03-15T04:30:46.739Z,97223.14
2018-03-15T04:32:23.981Z,97226.69
2018-03-15T04:34:01.350Z,97214.07
2018-03-15T04:35:38.320Z,97211.92
2018-03-15T04:37:15.298Z,97209.72
2018-03-15T04:38:52.191Z,97201.03
2018-03-15T04:40:29.336Z,97206.27
2018-03-15T04:42:06.308Z,97217.56
2018-03-15T04:43:43.494Z,97209.72
2018-03-15T04:45:20.398Z,97212.33
2018-03-15T04:46:57.576Z,97217.11
2018-03-15T04:48:34.133Z,97217.56
2018-03-15T04:50:10.758Z,97212.81
2018-03-15T04:51:48.262Z,97194.56
2018-03-15T04:53:25.604Z,97203.63
2018-03-15T04:55:03.338Z,97206.27
2018-03-15T04:56:40.023Z,97227.48
2018-03-15T04:58:16.660Z,97220.95
2018-03-15T04:59:53.292Z,97246.16
2018-03-15T05:01:30.607Z,97253.55
2018-03-15T05:03:09.213Z,97248.34
2018-03-15T05:04:46.083Z,97237.07
2018-03-15T05:06:23.684Z,97229.23
2018-03-15T05:08:00.672Z,97236.58
2018-03-15T05:09:38.224Z,97236.19
2018-03-15T05:11:15.273Z,97231.03
2018-03-15T05:12:52.181Z,97217.11
2018-03-15T05:14:29.663Z,97223.69
2018-03-15T05:16:06.774Z,97222.38
2018-03-15T05:17:44.406Z,97222.30
2018-03-15T05:19:21.829Z,97224.42
2018-03-15T05:20:59.298Z,97232.27
2018-03-15T05:22:36.797Z,97245.73
2018-03-15T05:24:13.808Z,97235.33
2018-03-15T05:25:50.741Z,97224.91
2018-03-15T05:27:28.073Z,97227.48
2018-03-15T05:29:06.160Z,97234.04
2018-03-15T05:30:45.238Z,97233.55
2018-03-15T05:32:23.859Z,97245.73
2018-03-15T05:34:01.753Z,97249.20
2018-03-15T05:35:39.212Z,97245.28
2018-03-15T05:37:16.504Z,97241.84
2018-03-15T05:38:54.138Z,97248.31
2018-03-15T05:40:32.806Z,97248.28
2018-03-15T05:42:10.572Z,97252.69
2018-03-15T05:43:48.774Z,97245.70
2018-03-15T05:45:28.082Z,97243.07
2018-03-15T05:47:06.135Z,97241.75
2018-03-15T05:48:43.796Z,97249.20
2018-03-15T05:50:21.212Z,97247.36
2018-03-15T05:51:59.558Z,97257.89
2018-03-15T05:53:37.406Z,97252.66
2018-03-15T05:55:15.207Z,97258.30
2018-03-15T05:56:52.773Z,97245.70
2018-03-15T05:58:30.800Z,97259.22
2018-03-15T06:00:09.074Z,97289.60
2018-03-15T06:01:46.976Z,97315.25
2018-03-15T06:03:24.931Z,97326.00
2018-03-15T06:05:03.019Z,97359.44
2018-03-15T06:06:41.088Z,97344.61
2018-03-15T06:08:18.959Z,97378.47
2018-03-15T06:09:56.803Z,97427.16
2018-03-15T06:11:34.885Z,97460.61
2018-03-15T06:13:28.153Z,97499.66
2018-03-15T06:15:07.206Z,97544.83
2018-03-15T06:16:45.439Z,97561.02
2018-03-15T06:18:24.197Z,97598.80
2018-03-15T06:20:02.017Z,97639.27
2018-03-15T06:21:39.684Z,97690.55
2018-03-15T06:23:17.197Z,97718.34
2018-03-15T06:24:54.970Z,97708.82
2018-03-15T06:26:32.639Z,97725.31
2018-03-15T06:28:10.486Z,97648.81
2018-03-15T06:29:47.915Z,97608.37
2018-03-15T06:31:27.329Z,97596.20
2018-03-15T06:33:04.832Z,97618.81
2018-03-15T06:34:42.752Z,97619.67
2018-03-15T06:36:20.771Z,97628.83
2018-03-15T06:37:59.041Z,97660.11
2018-03-15T06:39:37.163Z,97657.91
2018-03-15T06:41:14.852Z,97671.88
2018-03-15T06:42:52.514Z,97736.20
2018-03-15T06:44:31.002Z,97731.95
2018-03-15T06:46:09.703Z,97761.41
2018-03-15T06:47:47.253Z,97843.37
2018-03-15T06:49:25.812Z,97840.30
2018-03-15T06:51:04.103Z,97777.17
2018-03-15T06:52:41.583Z,97738.00
2018-03-15T06:54:20.253Z,97764.48
2018-03-15T06:55:58.008Z,97794.56
2018-03-15T06:57:36.152Z,97832.41
2018-03-15T06:59:14.436Z,97851.13
2018-03-15T07:00:53.586Z,97903.83
2018-03-15T07:02:31.293Z,97964.88
2018-03-15T07:04:09.390Z,98035.06
2018-03-15T07:05:47.375Z,98080.44
2018-03-15T07:07:25.068Z,98151.97
2018-03-15T07:09:02.836Z,98176.44
2018-03-15T07:10:41.593Z,98042.05
2018-03-15T07:12:18.819Z,98054.27
2018-03-15T07:13:56.407Z,98065.59
2018-03-15T07:15:34.509Z,98064.25
2018-03-15T07:17:13.432Z,97994.48
2018-03-15T07:18:51.254Z,97991.89
2018-03-15T07:20:28.830Z,97996.23
2018-03-15T07:22:07.279Z,97913.39
2018-03-15T07:23:45.077Z,97810.70
2018-03-15T07:25:23.501Z,97803.73
2018-03-15T07:27:01.178Z,97856.81
2018-03-15T07:28:38.812Z,97893.86
2018-03-15T07:30:20.730Z,97916.09
2018-03-15T07:33:37.502Z,97999.36
2018-03-15T07:35:16.402Z,98049.45
2018-03-15T07:36:54.595Z,98136.23
2018-03-15T07:38:32.073Z,98141.92
2018-03-15T07:40:09.543Z,98156.73
2018-03-15T07:41:48.422Z,98151.53
2018-03-15T07:43:26.327Z,98126.66
2018-03-15T07:45:03.901Z,98143.25
2018-03-15T07:46:42.568Z,98185.13
2018-03-15T07:48:21.245Z,98164.56
2018-03-15T07:49:59.710Z,98261.54
2018-03-15T07:51:37.387Z,98325.23
2018-03-15T07:53:15.386Z,98344.47
2018-03-15T07:54:53.354Z,98361.55
2018-03-15T07:56:30.810Z,98321.75
2018-03-15T07:58:08.528Z,98268.94
2018-03-15T07:59:46.615Z,98287.73
2018-03-15T08:01:25.305Z,98304.73
2018-03-15T08:03:03.778Z,98299.48
2018-03-15T08:04:41.282Z,98289.92
2018-03-15T08:06:18.946Z,98249.70
2018-03-15T08:07:56.846Z,98290.34
2018-03-15T08:09:35.545Z,98316.11
2018-03-15T08:11:13.185Z,98280.72
2018-03-15T08:12:50.843Z,98328.34
2018-03-15T08:14:28.634Z,98355.41
2018-03-15T08:16:07.590Z,98404.33
2018-03-15T08:17:45.843Z,98381.60
2018-03-15T08:19:24.233Z,98353.66
2018-03-15T08:21:02.187Z,98315.64
2018-03-15T08:22:39.495Z,98314.34
2018-03-15T08:24:17.050Z,98327.02
2018-03-15T08:25:54.401Z,98325.26
2018-03-15T08:27:32.254Z,98323.07
2018-03-15T08:29:09.667Z,98390.33
2018-03-15T08:30:47.461Z,98426.62
2018-03-15T08:32:26.423Z,98431.36
2018-03-15T08:34:04.309Z,98433.20
2018-03-15T08:35:41.855Z,98465.94
2018-03-15T08:37:20.250Z,98435.79
2018-03-15T08:38:57.652Z,98443.66
2018-03-15T08:40:35.051Z,98486.47
2018-03-15T08:42:12.441Z,98516.64
2018-03-15T08:43:50.875Z,98556.00
2018-03-15T08:45:29.917Z,98510.09
2018-03-15T08:47:08.164Z,98541.94
2018-03-15T08:48:45.373Z,98535.01
2018-03-15T08:50:23.042Z,98507.42
2018-03-15T08:52:00.982Z,98512.23
2018-03-15T08:53:38.971Z,98573.10
2018-03-15T08:55:17.397Z,98598.51
2018-03-15T08:56:54.820Z,98662.38
2018-03-15T08:58:33.053Z,98662.34
2018-03-15T09:00:10.761Z,98672.81
2018-03-15T09:01:48.540Z,98684.21
2018-03-15T09:03:26.948Z,98732.33
2018-03-15T09:05:04.624Z,98652.67
2018-03-15T09:06:42.355Z,98650.91
2018-03-15T09:08:21.184Z,98710.44
2018-03-15T09:09:58.855Z,98770.91
2018-03-15T09:11:35.944Z,98724.45
2018-03-15T09:13:13.172Z,98724.93
2018-03-15T09:14:50.496Z,98713.96
2018-03-15T09:16:28.701Z,98779.30
2018-03-15T09:18:05.978Z,98845.00
2018-03-15T09:19:43.603Z,98876.04
2018-03-15T09:21:21.683Z,98842.34
2018-03-15T09:22:59.800Z,98822.20
2018-03-15T09:24:37.400Z,98859.85
2018-03-15T09:26:15.285Z,98861.16
2018-03-15T09:27:52.685Z,98847.63
2018-03-15T09:29:30.103Z,98836.65
2018-03-15T09:31:08.059Z,98807.72
2018-03-15T09:32:45.601Z,98831.83
2018-03-15T09:34:25.655Z,98831.80
2018-03-15T09:36:03.001Z,98845.84
2018-03-15T09:37:40.466Z,98936.55
2018-03-15T09:39:18.055Z,99022.06
2018-03-15T09:40:55.995Z,98946.61
2018-03-15T09:42:33.316Z,98951.84
2018-03-15T09:44:10.467Z,98925.11
2018-03-15T09:45:48.054Z,98937.44
2018-03-15T09:47:25.278Z,99002.31
2018-03-15T09:49:02.821Z,99103.23
2018-03-15T09:50:40.569Z,99130.89
2018-03-15T09:52:18.747Z,99120.72
2018-03-15T09:53:56.041Z,99157.17
2018-03-15T09:55:34.131Z,99207.23
2018-03-15T09:57:11.920Z,99245.02
2018-03-15T09:58:49.443Z,99305.61
2018-03-15T10:00:29.706Z,99303.87
2018-03-15T10:02:07.818Z,99234.91
2018-03-15T10:03:45.652Z,99199.39
2018-03-15T10:05:22.924Z,99214.75
2018-03-15T10:07:01.112Z,99248.12
2018-03-15T10:08:39.795Z,99257.30
2018-03-15T10:10:17.803Z,99262.59
2018-03-15T10:11:55.225Z,99281.00
2018-03-15T10:13:33.332Z,99320.55
2018-03-15T10:15:16.631Z,99390.95
2018-03-15T10:16:54.690Z,99367.10
2018-03-15T10:18:32.590Z,99421.75
2018-03-15T10:20:09.747Z,99400.17
2018-03-15T10:21:48.644Z,99419.09
2018-03-15T10:23:26.284Z,99387.42
2018-03-15T10:25:13.608Z,99428.28
2018-03-15T10:26:41.154Z,99443.65
2018-03-15T10:28:18.879Z,99432.25
2018-03-15T10:30:00.874Z,99444.14
2018-03-15T10:31:38.313Z,99466.56
2018-03-15T10:33:20.108Z,99526.83
2018-03-15T10:35:01.490Z,99565.09
2018-03-15T10:36:38.880Z,99575.16
2018-03-15T10:38:16.129Z,99609.08
2018-03-15T10:39:53.189Z,99629.73
2018-03-15T10:41:30.708Z,99694.98
2018-03-15T10:43:08.130Z,99679.08
2018-03-15T10:44:45.268Z,99600.31
2018-03-15T10:46:22.700Z,99580.91
2018-03-15T10:48:00.466Z,99622.72
2018-03-15T10:49:37.419Z,99685.70
2018-03-15T10:51:14.570Z,99707.71
2018-03-15T10:52:51.693Z,99757.92
2018-03-15T10:54:30.479Z,99822.68
2018-03-15T10:56:07.610Z,99924.10
2018-03-15T10:57:45.114Z,99928.98
2018-03-15T10:59:22.241Z,99915.23
2018-03-15T11:01:04.095Z,99987.66
2018-03-15T11:02:45.346Z,100036.60
2018-03-15T11:04:26.391Z,100061.34
2018-03-15T11:06:07.310Z,100036.58
2018-03-15T11:07:48.656Z,100046.28
2018-03-15T11:09:29.831Z,99988.55
2018-03-15T11:11:07.199Z,99907.32
2018-03-15T11:12:44.533Z,99869.84
2018-03-15T11:14:21.655Z,99854.89
2018-03-15T11:15:59.659Z,99866.36
2018-03-15T11:17:36.938Z,99911.74
2018-03-15T11:19:14.635Z,99900.71
2018-03-15T11:20:51.802Z,99945.27
2018-03-15T11:22:29.902Z,99943.94
2018-03-15T11:24:06.870Z,99890.12
2018-03-15T11:25:44.465Z,99893.63
2018-03-15T11:27:21.657Z,99931.57
2018-03-15T11:28:59.044Z,100022.95
2018-03-15T11:30:36.731Z,100027.74
2018-03-15T11:32:14.351Z,99991.52
2018-03-15T11:33:51.423Z,99977.89
2018-03-15T11:35:29.313Z,99920.98
2018-03-15T11:37:06.679Z,99930.69
2018-03-15T11:38:43.721Z,99922.77
2018-03-15T11:40:21.618Z,99923.64
2018-03-15T11:41:59.898Z,99965.09
2018-03-15T11:43:37.326Z,100003.04
2018-03-15T11:45:21.535Z,99969.92
2018-03-15T11:47:00.316Z,100000.37
2018-03-15T11:48:38.626Z,100058.17
2018-03-15T11:50:16.699Z,100120.88
2018-03-15T11:51:54.234Z,100156.22
2018-03-15T11:53:32.356Z,100146.47
2018-03-15T11:55:09.395Z,100139.40
2018-03-15T11:56:47.747Z,100126.59
2018-03-15T11:58:25.011Z,100149.59
2018-03-15T12:00:04.430Z,100079.36
2018-03-15T12:01:42.241Z,99970.34
2018-03-15T12:03:19.262Z,99935.06
2018-03-15T12:04:56.398Z,99894.92
2018-03-15T12:06:34.999Z,99937.72
2018-03-15T12:08:12.771Z,99995.52
2018-03-15T12:09:49.854Z,100006.98
2018-03-15T12:11:26.942Z,100068.73
2018-03-15T12:13:03.991Z,100051.09
2018-03-15T12:14:41.883Z,100128.81
2018-03-15T12:16:19.302Z,100137.61
2018-03-15T12:17:56.337Z,100058.17
2018-03-15T12:19:33.413Z,100023.28
2018-03-15T12:21:10.563Z,99975.61
2018-03-15T12:22:47.543Z,99918.69
2018-03-15T12:24:24.533Z,99946.94
2018-03-15T12:26:01.923Z,100036.92
2018-03-15T12:27:39.078Z,100066.08
2018-03-15T12:29:16.329Z,100082.83
2018-03-15T12:30:53.606Z,100038.69
2018-03-15T12:32:31.096Z,100006.53
2018-03-15T12:34:07.764Z,100007.42
2018-03-15T12:35:44.994Z,100031.60
2018-03-15T12:37:22.315Z,100044.45
2018-03-15T12:38:59.681Z,100061.20
2018-03-15T12:40:38.681Z,100062.09
2018-03-15T12:42:15.956Z,100066.96
2018-03-15T12:43:53.450Z,100058.98
2018-03-15T12:45:30.771Z,100078.91
2018-03-15T12:47:07.756Z,100059.84
2018-03-15T12:48:44.941Z,100031.15
2018-03-15T12:50:23.334Z,100087.23
2018-03-15T12:52:01.163Z,100119.84
2018-03-15T12:53:38.858Z,100140.20
2018-03-15T12:55:16.002Z,100106.66
2018-03-15T12:56:53.567Z,100094.30
2018-03-15T12:58:30.618Z,100044.43
2018-03-15T13:00:08.149Z,100020.14
2018-03-15T13:01:45.298Z,100070.47
2018-03-15T13:03:22.504Z,100104.86
2018-03-15T13:04:59.583Z,100147.25
2018-03-15T13:06:36.502Z,100162.28
2018-03-15T13:08:13.857Z,100090.30
2018-03-15T13:09:50.842Z,100114.14
2018-03-15T13:11:27.727Z,100099.98
2018-03-15T13:13:05.436Z,100103.54
2018-03-15T13:14:43.089Z,100134.47
2018-03-15T13:16:20.314Z,100167.53
2018-03-15T13:17:58.286Z,100173.30
2018-03-15T13:19:35.988Z,100144.17
2018-03-15T13:21:13.546Z,100138.42
2018-03-15T13:22:51.669Z,100131.77
2018-03-15T13:24:28.706Z,100131.33
2018-03-15T13:26:05.750Z,100091.18
2018-03-15T13:27:45.248Z,100088.01
2018-03-15T13:29:25.024Z,100080.55
2018-03-15T13:31:02.620Z,100094.22
2018-03-15T13:32:41.485Z,100074.37
2018-03-15T13:34:18.909Z,100054.94
2018-03-15T13:35:55.818Z,100078.31
2018-03-15T13:37:32.981Z,100118.94
2018-03-15T13:39:10.291Z,100123.34
2018-03-15T13:40:48.787Z,100165.28
2018-03-15T13:42:26.188Z,100133.89
2018-03-15T13:44:03.219Z,100127.31
2018-03-15T13:45:40.800Z,100117.16
2018-03-15T13:47:18.102Z,100103.47
2018-03-15T13:48:55.229Z,100164.84
2018-03-15T13:50:33.331Z,100191.31
2018-03-15T13:52:10.702Z,100197.55
2018-03-15T13:53:49.443Z,100201.06
2018-03-15T13:55:27.359Z,100184.70
2018-03-15T13:57:04.814Z,100165.27
2018-03-15T13:58:42.810Z,100132.63
2018-03-15T14:00:21.179Z,100132.13
2018-03-15T14:01:58.757Z,100133.02
2018-03-15T14:03:35.918Z,100152.47
2018-03-15T14:05:13.094Z,100132.58
2018-03-15T14:06:50.617Z,100066.77
2018-03-15T14:08:28.763Z,100054.45
2018-03-15T14:10:06.325Z,100080.95
2018-03-15T14:11:43.607Z,100103.45
2018-03-15T14:13:21.175Z,100119.29
2018-03-15T14:14:59.032Z,100149.30
2018-03-15T14:16:37.996Z,100172.77
2018-03-15T14:18:15.466Z,100191.30
2018-03-15T14:19:52.663Z,100202.75
2018-03-15T14:21:30.566Z,100263.30
2018-03-15T14:23:08.524Z,100240.77
2018-03-15T14:24:47.047Z,100181.14
2018-03-15T14:26:24.253Z,100145.81
2018-03-15T14:28:03.179Z,100129.44
2018-03-15T14:29:41.036Z,100137.41
2018-03-15T14:31:19.393Z,100164.80
2018-03-15T14:32:57.444Z,100154.61
2018-03-15T14:34:34.804Z,100170.99
2018-03-15T14:36:12.254Z,100166.09
2018-03-15T14:37:50.079Z,100149.30
2018-03-15T14:39:28.014Z,100164.75
2018-03-15T14:41:05.332Z,100147.57
2018-03-15T14:42:44.950Z,100080.83
2018-03-15T14:44:22.622Z,100070.72
2018-03-15T14:45:59.702Z,100063.65
2018-03-15T14:47:37.219Z,100089.25
2018-03-15T14:49:14.297Z,100139.13
2018-03-15T14:50:52.082Z,100159.42
2018-03-15T14:52:30.217Z,100151.47
2018-03-15T14:54:07.340Z,100152.83
2018-03-15T14:55:44.601Z,100146.17
2018-03-15T14:57:22.890Z,100108.18
2018-03-15T14:59:00.039Z,100110.83
2018-03-15T15:00:39.141Z,100103.33
2018-03-15T15:02:17.766Z,100144.38
2018-03-15T15:03:55.725Z,100185.87
2018-03-15T15:05:34.691Z,100213.26
2018-03-15T15:07:11.791Z,100234.45
2018-03-15T15:08:48.811Z,100270.73
2018-03-15T15:10:27.783Z,100304.30
2018-03-15T15:12:05.802Z,100306.52
2018-03-15T15:13:42.938Z,100282.66
2018-03-15T15:15:21.126Z,100305.16
2018-03-15T15:17:00.597Z,100335.23
2018-03-15T15:18:38.141Z,100259.62
2018-03-15T15:20:16.084Z,100173.09
2018-03-15T15:21:56.309Z,100124.92
2018-03-15T15:23:35.945Z,100105.95
2018-03-15T15:25:12.945Z,100145.68
2018-03-15T15:26:50.374Z,100184.06
2018-03-15T15:28:29.785Z,100266.28
2018-03-15T15:30:08.856Z,100288.80
2018-03-15T15:31:46.674Z,100273.75
2018-03-15T15:33:25.769Z,100234.84
2018-03-15T15:35:04.280Z,100188.04
2018-03-15T15:36:42.128Z,100210.59
2018-03-15T15:38:19.453Z,100197.73
2018-03-15T15:39:56.777Z,100166.84
2018-03-15T15:41:33.778Z,100131.06
2018-03-15T15:43:12.625Z,100129.28
2018-03-15T15:47:08.493Z,100114.27
2018-03-15T15:48:50.618Z,100023.77
2018-03-15T15:50:28.664Z,99998.16
2018-03-15T15:52:09.628Z,100025.50
2018-03-15T15:53:50.066Z,100052.95
2018-03-15T15:55:37.908Z,100056.86
2018-03-15T15:57:29.556Z,100063.89
2018-03-15T15:59:15.178Z,100020.22
2018-03-15T16:00:54.424Z,99976.12
2018-03-15T16:02:32.600Z,99953.10
2018-03-15T16:04:10.592Z,99979.61
2018-03-15T16:05:48.888Z,99960.63
2018-03-15T16:07:25.961Z,99949.19
2018-03-15T16:09:04.110Z,99968.55
2018-03-15T16:10:44.659Z,99999.05
2018-03-15T16:12:23.233Z,99985.80
2018-03-15T16:14:00.664Z,99996.77
2018-03-15T16:15:40.173Z,100029.43
2018-03-15T16:17:17.907Z,100050.27
2018-03-15T16:18:55.511Z,100047.98
2018-03-15T16:20:33.389Z,100036.06
2018-03-15T16:22:10.635Z,100024.15
2018-03-15T16:23:48.779Z,100011.80
2018-03-15T16:25:26.196Z,99991.06
2018-03-15T16:27:03.379Z,99972.47
2018-03-15T16:28:42.944Z,100013.11
2018-03-15T16:30:22.265Z,99998.94
2018-03-15T16:32:02.965Z,100002.05
2018-03-15T16:33:40.802Z,100053.30
2018-03-15T16:35:17.776Z,100079.29
2018-03-15T16:36:56.889Z,100114.63
2018-03-15T16:38:36.156Z,100112.38
2018-03-15T16:40:20.384Z,100132.30
2018-03-15T16:41:57.328Z,100155.71
2018-03-15T16:43:35.199Z,100149.05
2018-03-15T16:45:16.891Z,100166.70
2018-03-15T16:46:55.252Z,100139.73
2018-03-15T16:48:32.425Z,100133.57
2018-03-15T16:50:10.012Z,100136.23
2018-03-15T16:51:48.786Z,100098.70
2018-03-15T16:53:25.849Z,100102.25
2018-03-15T16:55:03.145Z,100084.15
2018-03-15T16:56:41.242Z,100042.66
2018-03-15T16:58:18.568Z,100003.80
2018-03-15T16:59:55.718Z,100021.89
2018-03-15T17:01:34.587Z,100020.99
2018-03-15T17:03:15.958Z,100054.10
2018-03-15T17:04:53.182Z,100056.33
2018-03-15T17:06:31.683Z,100067.76
2018-03-15T17:08:09.266Z,100079.62
2018-03-15T17:09:47.485Z,100096.91
2018-03-15T17:11:28.635Z,100089.78
2018-03-15T17:13:06.130Z,100079.64
2018-03-15T17:14:44.218Z,100045.23
2018-03-15T17:16:23.171Z,100061.58
2018-03-15T17:18:00.064Z,100042.12
2018-03-15T17:19:37.204Z,100018.33
2018-03-15T17:21:14.201Z,99972.85
2018-03-15T17:22:53.448Z,100002.42
2018-03-15T17:24:34.408Z,100036.34
2018-03-15T17:26:12.128Z,100083.63
2018-03-15T17:27:50.693Z,100065.05
2018-03-15T17:29:27.738Z,99991.36
2018-03-15T17:31:06.158Z,99948.58
2018-03-15T17:32:43.085Z,99979.45
2018-03-15T17:34:20.966Z,99973.71
2018-03-15T17:36:00.266Z,99957.80
2018-03-15T17:37:37.321Z,100001.02
2018-03-15T17:39:17.264Z,100007.22
2018-03-15T17:40:55.796Z,99999.23
2018-03-15T17:42:36.192Z,99936.16
2018-03-15T17:44:18.718Z,99898.28
2018-03-15T17:45:57.039Z,99920.76
2018-03-15T17:47:34.400Z,99941.03
2018-03-15T17:49:11.353Z,99900.44
2018-03-15T17:50:49.135Z,99827.64
2018-03-15T17:52:26.272Z,99828.09
2018-03-15T17:54:04.188Z,99774.80
2018-03-15T17:55:41.219Z,99764.20
2018-03-15T17:57:19.257Z,99737.77
2018-03-15T17:58:56.945Z,99729.84
2018-03-15T18:00:35.530Z,99703.87
2018-03-15T18:02:15.493Z,99706.49
2018-03-15T18:03:53.121Z,99716.14
2018-03-15T18:05:33.699Z,99673.41
2018-03-15T18:07:11.807Z,99687.98
2018-03-15T18:08:49.741Z,99698.13
2018-03-15T18:10:26.585Z,99698.55
2018-03-15T18:12:06.290Z,99724.09
2018-03-15T18:13:45.604Z,99735.53
2018-03-15T18:15:25.785Z,99726.73
2018-03-15T18:17:03.911Z,99742.59
2018-03-15T18:18:41.350Z,99735.95
2018-03-15T18:20:18.569Z,99739.02
2018-03-15T18:21:55.943Z,99700.22
2018-03-15T18:23:33.873Z,99688.34
2018-03-15T18:25:13.437Z,99676.88
2018-03-15T18:26:51.687Z,99645.22
2018-03-15T18:28:30.004Z,99635.14
2018-03-15T18:30:09.704Z,99631.96
2018-03-15T18:31:47.082Z,99667.66
2018-03-15T18:33:24.990Z,99714.77
2018-03-15T18:35:02.343Z,99599.02
2018-03-15T18:36:40.356Z,99691.88
2018-03-15T18:38:17.342Z,99794.56
2018-03-15T18:39:55.336Z,99546.61
2018-03-15T18:41:32.655Z,99432.66
2018-03-15T18:43:11.810Z,99519.77
2018-03-15T18:44:49.459Z,99630.66
2018-03-15T18:46:28.365Z,99750.88
2018-03-15T18:48:07.482Z,99804.65
2018-03-15T18:49:46.097Z,99843.88
2018-03-15T18:51:23.423Z,99940.43
2018-03-15T18:53:02.322Z,100015.00
2018-03-15T18:54:42.965Z,99988.08
2018-03-15T18:56:21.590Z,99991.62
2018-03-15T18:57:58.837Z,99985.42
2018-03-15T18:59:36.820Z,99984.53
2018-03-15T19:01:14.445Z,99967.34
2018-03-15T19:02:51.392Z,99958.06
2018-03-15T19:04:28.279Z,99977.90
2018-03-15T19:06:08.155Z,99971.27
2018-03-15T19:09:31.118Z,99988.47